Time;durP1;ratioP1;P1;durP2;ratioP2;P2;SDS_P1;SDS_P2;PMS_P1;PMS_P2;Temp;Humidity;BMP_temperature;BMP_pressure;BME280_temperature;BME280_humidity;BME280_pressure;Samples;Min_cycle;Max_cycle;Signal;HPM_P1;HPM_P2
2022/12/03 01:48:25;;;;;;;15.20;7.92;;;;;;;-1.29;61.33;102509.14;1749225;80;21097;-87
2022/12/03 01:50:51;;;;;;;17.25;7.30;;;;;;;-1.44;61.52;102513.58;1746451;80;21034;-87
2022/12/03 01:53:18;;;;;;;14.70;7.40;;;;;;;-1.49;61.79;102507.45;1748338;80;21081;-88
2022/12/03 01:55:45;;;;;;;14.55;8.53;;;;;;;-1.55;61.80;102517.22;1749889;80;20990;-88
2022/12/03 01:58:13;;;;;;;12.35;6.87;;;;;;;-1.55;61.93;102517.64;1739704;80;20912;-88
2022/12/03 02:00:40;;;;;;;18.98;9.43;;;;;;;-1.52;61.93;102529.27;1743063;80;21152;-87
2022/12/03 02:03:22;;;;;;;14.73;7.58;;;;;;;-1.50;62.12;102531.45;1747193;80;20908;-86
2022/12/03 02:05:49;;;;;;;23.98;9.55;;;;;;;-1.47;62.30;102529.83;1774259;78;20987;-88
2022/12/03 02:08:34;;;;;;;19.70;8.00;;;;;;;-1.48;62.21;102540.08;1752541;78;20899;-87
2022/12/03 02:11:06;;;;;;;18.80;8.13;;;;;;;-1.53;62.04;102551.56;1751117;80;21070;-87
2022/12/03 02:13:32;;;;;;;14.58;8.65;;;;;;;-1.64;61.98;102539.32;1748296;78;21158;-86
2022/12/03 02:15:59;;;;;;;15.32;9.45;;;;;;;-1.82;62.22;102539.36;1747095;80;20999;-88
2022/12/03 02:18:25;;;;;;;17.85;9.50;;;;;;;-1.91;62.64;102549.02;1750760;80;21038;-88
2022/12/03 02:21:06;;;;;;;12.37;7.95;;;;;;;-1.88;62.64;102547.80;1745745;80;21023;-87
2022/12/03 02:24:21;;;;;;;15.98;8.13;;;;;;;-1.82;62.47;102550.04;1747568;80;20986;-86
2022/12/03 02:26:48;;;;;;;16.05;8.30;;;;;;;-1.89;61.97;102558.03;1747126;80;21224;-88
2022/12/03 02:29:15;;;;;;;19.52;9.38;;;;;;;-2.03;61.94;102553.01;1747906;80;20952;-86
2022/12/03 02:31:42;;;;;;;13.78;8.40;;;;;;;-2.13;62.16;102559.65;1739675;80;20903;-88
2022/12/03 02:34:09;;;;;;;19.20;9.05;;;;;;;-2.19;62.36;102560.35;1764006;80;21000;-88
2022/12/03 02:36:36;;;;;;;14.93;8.15;;;;;;;-2.20;62.73;102563.77;1741246;80;21067;-88
2022/12/03 02:39:03;;;;;;;16.57;8.05;;;;;;;-2.21;62.54;102574.86;1754679;80;22054;-88
2022/12/03 02:44:14;;;;;;;;;;;;;;;-2.46;62.70;102569.97;1737587;80;20999;-87
2022/12/03 02:46:40;;;;;;;13.60;7.53;;;;;;;-2.55;63.25;102579.59;1751261;78;20089;-87
2022/12/03 02:49:07;;;;;;;12.30;7.92;;;;;;;-2.55;63.42;102598.43;1754658;79;20895;-85
2022/12/03 02:51:33;;;;;;;19.57;8.98;;;;;;;-2.56;63.15;102582.97;1745402;78;21064;-88
2022/12/03 02:54:00;;;;;;;18.05;8.95;;;;;;;-2.59;63.14;102588.90;1746604;80;21010;-87
2022/12/03 02:56:28;;;;;;;16.25;8.55;;;;;;;-2.63;63.14;102593.50;1749173;80;21520;-88
2022/12/03 02:58:57;;;;;;;12.82;8.23;;;;;;;-2.67;63.22;102587.82;1750474;80;21026;-88
2022/12/03 03:01:24;;;;;;;15.08;8.30;;;;;;;-2.75;63.38;102583.78;1742967;80;20928;-87
2022/12/03 03:03:50;;;;;;;18.27;8.05;;;;;;;-2.78;63.29;102600.40;1757701;80;21103;-88
2022/12/03 03:06:17;;;;;;;18.95;8.43;;;;;;;-2.85;63.24;102603.60;1748781;80;20987;-88
2022/12/03 03:08:45;;;;;;;17.55;8.35;;;;;;;-2.98;63.51;102594.72;1741218;81;21556;-87
2022/12/03 03:11:11;;;;;;;13.08;7.30;;;;;;;-3.04;64.05;102607.80;1744787;80;21496;-88
2022/12/03 03:13:38;;;;;;;16.37;8.75;;;;;;;-3.14;64.29;102598.52;1744985;80;20983;-87
2022/12/03 03:16:05;;;;;;;17.45;9.08;;;;;;;-3.21;64.41;102591.91;1743576;80;21057;-88
2022/12/03 03:18:32;;;;;;;10.48;7.12;;;;;;;-3.22;64.48;102604.30;1742469;80;20963;-88
2022/12/03 03:20:59;;;;;;;15.60;8.00;;;;;;;-3.20;64.31;102606.07;1743728;80;21367;-86
2022/12/03 03:23:26;;;;;;;18.30;7.30;;;;;;;-3.25;64.20;102601.62;1750716;80;20904;-87
2022/12/03 03:26:05;;;;;;;15.58;8.65;;;;;;;-3.24;64.33;102602.09;1758049;80;20967;-88
2022/12/03 03:28:33;;;;;;;15.18;7.75;;;;;;;-3.20;64.29;102606.45;1778763;78;21242;-86
2022/12/03 03:31:00;;;;;;;15.85;8.15;;;;;;;-3.16;64.07;102613.42;1773376;78;20994;-87
2022/12/03 03:33:26;;;;;;;12.43;7.90;;;;;;;-3.18;64.17;102606.09;1736909;80;20970;-88
2022/12/03 03:35:53;;;;;;;11.45;7.30;;;;;;;-3.20;64.17;102634.30;1767583;80;20927;-87
2022/12/03 03:38:19;;;;;;;13.22;8.08;;;;;;;-3.29;64.20;102628.89;1751528;80;20962;-86
2022/12/03 03:40:47;;;;;;;15.55;8.50;;;;;;;-3.39;64.38;102612.34;1745722;80;21118;-86
2022/12/03 03:43:14;;;;;;;14.53;7.58;;;;;;;-3.45;64.72;102625.39;1735742;80;21105;-90
2022/12/03 03:45:41;;;;;;;15.32;8.75;;;;;;;-3.44;64.91;102625.45;1757508;80;21015;-89
2022/12/03 03:48:07;;;;;;;17.17;7.90;;;;;;;-3.45;64.94;102618.98;1740043;80;21004;-87
2022/12/03 03:50:34;;;;;;;12.75;8.15;;;;;;;-3.47;64.85;102620.63;1771270;78;20982;-89
2022/12/03 03:53:00;;;;;;;15.35;7.50;;;;;;;-3.55;64.91;102627.69;1751003;80;21119;-88
2022/12/03 03:55:27;;;;;;;12.55;7.17;;;;;;;-3.60;65.06;102636.05;1747975;80;20959;-88
2022/12/03 03:57:54;;;;;;;13.78;7.85;;;;;;;-3.64;65.06;102630.39;1746149;80;21154;-84
2022/12/03 04:00:20;;;;;;;15.95;7.33;;;;;;;-3.67;65.12;102628.99;1740884;80;21035;-88
2022/12/03 04:02:47;;;;;;;11.93;6.78;;;;;;;-3.72;65.22;102630.55;1748876;80;21003;-86
2022/12/03 04:05:18;;;;;;;12.95;6.60;;;;;;;-3.76;65.16;102634.31;1758651;80;21297;-87
2022/12/03 04:07:45;;;;;;;13.50;7.33;;;;;;;-3.76;65.29;102643.67;1745697;80;20915;-87
2022/12/03 04:12:56;;;;;;;10.78;6.65;;;;;;;-3.80;65.31;102649.13;1744431;80;21007;-89
2022/12/03 04:15:23;;;;;;;15.45;7.12;;;;;;;-3.87;65.36;102638.62;1746296;80;21022;-89
2022/12/03 04:20:36;;;;;;;12.43;6.80;;;;;;;-3.88;65.70;102649.28;1742716;80;21449;-89
2022/12/03 04:23:03;;;;;;;11.60;6.55;;;;;;;-3.98;65.74;102657.48;1745742;80;21007;-88
2022/12/03 04:30:59;;;;;;;19.20;5.93;;;;;;;-4.07;66.24;102664.48;1701165;81;21782;-87
2022/12/03 04:36:10;;;;;;;13.85;7.53;;;;;;;-3.96;66.12;102666.09;1750850;80;20912;-88
2022/12/03 04:38:37;;;;;;;10.35;5.70;;;;;;;-3.95;66.11;102661.45;1753856;80;20951;-88
2022/12/03 04:41:03;;;;;;;9.48;5.87;;;;;;;-3.92;66.02;102668.36;1740189;80;20977;-88
2022/12/03 04:43:33;;;;;;;14.15;6.67;;;;;;;-3.91;66.00;102664.58;1735101;80;21147;-87
2022/12/03 04:46:00;;;;;;;12.37;7.05;;;;;;;-3.89;66.27;102669.73;1747313;80;21598;-87
2022/12/03 04:48:26;;;;;;;7.55;5.95;;;;;;;-3.87;66.09;102683.47;1751883;80;21102;-88
2022/12/03 04:50:53;;;;;;;12.50;6.95;;;;;;;-3.91;66.02;102677.39;1768826;80;21059;-88
2022/12/03 04:53:19;;;;;;;13.58;6.62;;;;;;;-3.98;66.21;102673.75;1750637;79;20991;-87
2022/12/03 04:55:46;;;;;;;10.80;6.28;;;;;;;-4.05;66.47;102688.86;1759748;80;22447;-87
2022/12/03 04:58:12;;;;;;;13.22;6.15;;;;;;;-4.10;66.66;102679.73;1736572;80;20903;-85
2022/12/03 05:00:39;;;;;;;12.35;7.03;;;;;;;-4.10;66.73;102684.86;1743543;80;21010;-87
2022/12/03 05:03:05;;;;;;;11.43;5.45;;;;;;;-4.12;66.77;102697.16;1733987;80;20939;-86
2022/12/03 05:05:31;;;;;;;11.10;7.12;;;;;;;-4.14;66.89;102691.11;1760617;80;21102;-87
2022/12/03 05:07:58;;;;;;;7.72;4.85;;;;;;;-4.12;66.97;102699.30;1742117;80;21131;-86
2022/12/03 05:10:24;;;;;;;11.48;6.30;;;;;;;-4.15;67.05;102694.09;1744428;80;20983;-88
2022/12/03 05:12:51;;;;;;;8.90;5.78;;;;;;;-4.19;67.18;102703.34;1746704;80;20904;-84
2022/12/03 05:15:17;;;;;;;11.22;6.72;;;;;;;-4.18;67.42;102697.42;1744416;80;20912;-87
2022/12/03 05:17:44;;;;;;;6.75;4.85;;;;;;;-4.13;67.29;102701.42;1739247;80;21754;-88
2022/12/03 05:22:57;;;;;;;12.35;6.67;;;;;;;-4.10;67.14;102699.38;1747014;80;21500;-89
2022/12/03 05:25:23;;;;;;;12.28;6.12;;;;;;;-4.10;67.19;102714.74;1743462;80;21422;-89
2022/12/03 05:27:50;;;;;;;10.80;5.83;;;;;;;-4.08;67.11;102710.12;1749548;80;20970;-89
2022/12/03 05:30:16;;;;;;;7.40;4.90;;;;;;;-4.05;67.30;102714.06;1752418;80;20880;-89
2022/12/03 05:32:43;;;;;;;9.13;6.65;;;;;;;-4.00;67.20;102729.62;1748267;80;21175;-88
2022/12/03 05:35:09;;;;;;;9.48;4.65;;;;;;;-3.99;67.02;102720.69;1748981;80;20892;-87
2022/12/03 05:37:36;;;;;;;11.80;5.17;;;;;;;-3.94;67.15;102723.40;1742363;80;20895;-87
2022/12/03 05:40:03;;;;;;;9.13;4.80;;;;;;;-3.86;66.85;102730.08;1765495;80;21053;-87
2022/12/03 05:45:16;;;;;;;;;;;;;;;-3.87;66.69;102736.88;1749135;80;21139;-84
2022/12/03 05:47:42;;;;;;;9.15;4.97;;;;;;;-3.87;66.92;102736.01;1747844;80;20193;-88
2022/12/03 05:50:09;;;;;;;9.18;4.33;;;;;;;-3.83;66.73;102739.14;1741546;80;20960;-87
2022/12/03 05:52:35;;;;;;;8.68;4.95;;;;;;;-3.80;66.69;102752.95;1773223;78;20975;-88
2022/12/03 05:55:02;;;;;;;8.38;4.75;;;;;;;-3.78;66.59;102747.84;1763331;78;21015;-89
2022/12/03 05:57:30;;;;;;;6.75;4.05;;;;;;;-3.73;66.64;102760.81;1757792;79;21742;-89
2022/12/03 05:59:56;;;;;;;16.73;6.08;;;;;;;-3.72;66.37;102766.00;1749600;78;21147;-89
2022/12/03 06:02:22;;;;;;;7.22;3.95;;;;;;;-3.73;66.31;102764.28;1750274;79;20988;-88
2022/12/03 06:04:49;;;;;;;9.20;5.17;;;;;;;-3.72;66.39;102760.88;1746380;78;20924;-88
2022/12/03 06:07:15;;;;;;;6.95;4.12;;;;;;;-3.69;66.33;102768.69;1750653;80;20852;-87
2022/12/03 06:09:42;;;;;;;8.28;4.47;;;;;;;-3.65;66.37;102779.48;1748175;80;21113;-90
2022/12/03 06:12:09;;;;;;;9.00;4.40;;;;;;;-3.63;66.22;102767.59;1735679;80;21335;-88
2022/12/03 06:14:35;;;;;;;6.70;3.70;;;;;;;-3.57;66.31;102775.91;1739689;80;21185;-88
2022/12/03 06:17:02;;;;;;;9.25;5.78;;;;;;;-3.54;66.16;102770.87;1757107;80;20974;-89
2022/12/03 06:19:28;;;;;;;9.43;5.45;;;;;;;-3.53;66.26;102771.34;1737590;80;20899;-88
2022/12/03 06:21:55;;;;;;;6.78;4.78;;;;;;;-3.44;66.67;102781.91;1748570;80;21850;-87
2022/12/03 06:24:21;;;;;;;6.17;4.15;;;;;;;-3.34;66.06;102784.34;1743583;80;21521;-88
2022/12/03 06:26:48;;;;;;;8.93;4.08;;;;;;;-3.35;65.85;102789.03;1742805;80;21135;-89
2022/12/03 06:29:14;;;;;;;12.18;4.40;;;;;;;-3.39;65.83;102783.33;1743374;80;20995;-89
2022/12/03 06:31:41;;;;;;;9.30;4.95;;;;;;;-3.38;65.91;102776.98;1746886;80;21564;-89
2022/12/03 06:34:07;;;;;;;7.08;4.28;;;;;;;-3.33;65.81;102778.41;1740699;80;21897;-89
2022/12/03 06:36:34;;;;;;;8.33;4.67;;;;;;;-3.27;65.89;102767.45;1747480;80;21101;-88
2022/12/03 06:39:00;;;;;;;7.33;4.65;;;;;;;-3.19;65.89;102769.86;1744431;80;21011;-88
2022/12/03 06:41:27;;;;;;;13.20;5.22;;;;;;;-3.10;65.36;102782.11;1739698;80;20908;-88
2022/12/03 06:43:53;;;;;;;9.30;5.30;;;;;;;-3.14;65.31;102772.15;1747291;80;20939;-87
2022/12/03 06:46:21;;;;;;;6.80;4.62;;;;;;;-3.16;65.51;102793.94;1749629;80;20879;-89
2022/12/03 06:48:48;;;;;;;11.50;5.22;;;;;;;-3.15;65.40;102768.72;1730973;80;20935;-88
2022/12/03 06:51:14;;;;;;;7.22;4.45;;;;;;;-3.10;65.39;102789.39;1745842;80;21513;-88
2022/12/03 06:53:41;;;;;;;7.80;5.90;;;;;;;-3.09;65.26;102778.31;1739639;80;20916;-89
2022/12/03 06:56:07;;;;;;;7.25;4.20;;;;;;;-3.14;65.50;102781.13;1752501;80;20911;-88
2022/12/03 06:58:34;;;;;;;9.75;4.75;;;;;;;-3.08;65.42;102789.03;1748667;80;21098;-89
2022/12/03 07:01:00;;;;;;;4.85;3.52;;;;;;;-3.04;65.18;102780.61;1748275;80;20936;-89
2022/12/03 07:03:26;;;;;;;9.65;4.72;;;;;;;-3.03;65.15;102782.75;1739425;80;20907;-89
2022/12/03 07:05:53;;;;;;;8.48;5.12;;;;;;;-2.99;65.14;102785.46;1743821;80;21006;-88
2022/12/03 07:08:20;;;;;;;6.62;4.10;;;;;;;-2.92;65.09;102780.10;1749517;80;20913;-88
2022/12/03 07:10:46;;;;;;;7.85;4.78;;;;;;;-2.86;64.74;102794.84;1763376;80;21556;-87
2022/12/03 07:13:13;;;;;;;11.25;4.40;;;;;;;-2.83;64.46;102789.78;1760806;80;20923;-89
2022/12/03 07:15:39;;;;;;;6.08;4.00;;;;;;;-2.86;64.62;102792.27;1760744;80;21405;-90
2022/12/03 07:18:08;;;;;;;6.83;4.50;;;;;;;-2.83;64.67;102798.35;1742633;80;20904;-90
2022/12/03 07:20:34;;;;;;;7.08;3.85;;;;;;;-2.78;64.40;102789.50;1748892;80;21138;-88
2022/12/03 07:23:00;;;;;;;10.63;4.53;;;;;;;-2.69;64.31;102785.05;1738805;80;21124;-89
2022/12/03 07:25:27;;;;;;;7.45;4.05;;;;;;;-2.57;64.28;102790.57;1734011;80;21073;-87
2022/12/03 07:28:09;;;;;;;7.15;4.47;;;;;;;-2.42;63.75;102798.72;1748932;80;21037;-89
2022/12/03 07:30:52;;;;;;;6.35;3.55;;;;;;;-2.32;63.19;102802.41;1745190;80;20861;-89
2022/12/03 07:33:18;;;;;;;6.20;4.05;;;;;;;-2.25;63.17;102797.03;1760490;80;21013;-90
2022/12/03 07:35:48;;;;;;;6.70;3.62;;;;;;;-2.21;62.89;102789.88;1747371;80;21241;-89
2022/12/03 07:38:14;;;;;;;8.45;3.90;;;;;;;-2.14;62.91;102793.92;1742912;80;20936;-89
2022/12/03 07:40:45;;;;;;;10.63;4.35;;;;;;;-2.06;62.21;102799.30;1764495;78;21061;-89
2022/12/03 07:43:17;;;;;;;7.67;4.42;;;;;;;-2.01;61.99;102790.00;1773536;79;21507;-90
2022/12/03 07:45:46;;;;;;;8.60;5.25;;;;;;;-1.92;61.87;102801.81;1668685;81;21030;-90
2022/12/03 07:48:12;;;;;;;9.03;3.42;;;;;;;-1.84;61.49;102795.60;1728215;81;22144;-88
2022/12/03 07:50:38;;;;;;;8.43;3.83;;;;;;;-1.84;60.88;102804.60;1720306;81;20928;-90
2022/12/03 07:53:07;;;;;;;12.50;4.05;;;;;;;-1.88;60.97;102801.48;1736340;80;21429;-90
2022/12/03 07:55:33;;;;;;;14.03;4.42;;;;;;;-1.90;61.14;102796.30;1734184;81;20919;-89
2022/12/03 07:58:00;;;;;;;9.95;5.00;;;;;;;-1.82;61.28;102795.23;1761249;80;20832;-88
2022/12/03 08:00:26;;;;;;;10.00;4.62;;;;;;;-1.69;61.08;102801.54;1752464;79;21141;-88
2022/12/03 08:02:53;;;;;;;10.15;4.37;;;;;;;-1.59;60.77;102795.81;1752954;78;22401;-89
2022/12/03 08:05:20;;;;;;;11.70;4.97;;;;;;;-1.51;60.17;102799.88;1731758;81;21320;-86
2022/12/03 08:07:46;;;;;;;9.85;3.77;;;;;;;-1.46;59.73;102806.87;1734005;81;21104;-86
2022/12/03 10:30:22;;;;;;;7.28;4.12;;;;;;;-0.08;56.90;102758.78;1750297;79;21017;-88
2022/12/03 10:32:49;;;;;;;5.67;3.75;;;;;;;-0.08;56.60;102754.91;1748377;81;21205;-87
2022/12/03 10:35:35;;;;;;;6.25;3.65;;;;;;;-0.07;56.52;102758.34;1698108;82;21951;-88
2022/12/03 10:38:21;;;;;;;8.65;4.05;;;;;;;-0.03;56.34;102751.13;1748115;81;20883;-88
2022/12/03 10:40:47;;;;;;;13.65;5.87;;;;;;;-0.01;55.72;102758.47;1743788;81;20991;-87
2022/12/03 10:43:21;;;;;;;19.60;6.85;;;;;;;0.01;55.61;102751.63;1726668;82;21593;-88
2022/12/03 10:45:51;;;;;;;5.67;4.12;;;;;;;0.00;55.74;102752.49;1745493;81;21025;-88
2022/12/03 10:48:24;;;;;;;7.08;4.22;;;;;;;0.02;56.07;102768.83;1747089;81;21094;-86
2022/12/03 10:51:03;;;;;;;5.47;3.62;;;;;;;-0.01;56.47;102750.31;1744144;81;21530;-88
2022/12/03 10:53:32;;;;;;;6.22;3.55;;;;;;;0.03;56.88;102768.44;1732211;81;20923;-88
2022/12/03 10:56:02;;;;;;;7.37;4.10;;;;;;;0.04;56.99;102751.67;1734381;81;20979;-88
2022/12/03 10:58:34;;;;;;;6.83;4.30;;;;;;;0.04;57.12;102757.27;1746406;81;21010;-86
2022/12/03 11:01:04;;;;;;;7.70;5.08;;;;;;;0.02;57.17;102754.64;1743677;81;21458;-87
2022/12/03 11:03:33;;;;;;;8.18;4.85;;;;;;;-0.01;57.30;102754.17;1744131;80;22159;-87
2022/12/03 11:06:00;;;;;;;6.45;3.90;;;;;;;-0.04;57.42;102749.40;1747265;81;20894;-88
2022/12/03 11:08:31;;;;;;;6.78;4.17;;;;;;;-0.06;57.26;102771.28;1746739;81;20970;-88
2022/12/03 11:11:07;;;;;;;9.40;4.50;;;;;;;-0.05;56.44;102760.11;1745323;81;21629;-88
2022/12/03 11:13:39;;;;;;;6.47;3.90;;;;;;;0.00;56.33;102747.33;1744151;81;21141;-87
2022/12/03 11:16:09;;;;;;;9.13;5.45;;;;;;;0.05;56.49;102749.99;1740191;81;20998;-88
2022/12/03 11:18:42;;;;;;;5.05;3.95;;;;;;;0.07;56.49;102750.86;1746827;80;21444;-89
2022/12/03 11:21:12;;;;;;;8.38;4.85;;;;;;;0.05;56.16;102752.57;1747021;81;20993;-84
2022/12/03 11:23:51;;;;;;;6.22;3.75;;;;;;;-0.02;56.06;102738.70;1746430;80;21030;-87
2022/12/03 11:26:30;;;;;;;7.78;4.42;;;;;;;-0.02;56.13;102742.14;1743282;81;21244;-89
2022/12/03 11:28:58;;;;;;;6.28;3.85;;;;;;;-0.05;55.99;102743.78;1739938;80;21630;-88
2022/12/03 11:31:40;;;;;;;5.75;3.50;;;;;;;-0.04;56.04;102740.38;1743546;81;21448;-88
2022/12/03 11:34:30;;;;;;;10.28;3.92;;;;;;;-0.06;55.63;102749.36;1745141;81;21057;-87
2022/12/03 11:37:15;;;;;;;10.32;4.22;;;;;;;-0.07;55.32;102745.06;1747854;81;21049;-89
2022/12/03 11:39:56;;;;;;;8.48;3.83;;;;;;;-0.08;54.71;102733.42;1746077;81;21128;-89
2022/12/03 11:42:28;;;;;;;7.45;4.60;;;;;;;-0.07;55.15;102743.77;1749573;80;21057;-87
2022/12/03 11:45:10;;;;;;;16.82;5.35;;;;;;;0.00;56.01;102748.63;1746438;81;21587;-89
2022/12/03 11:47:40;;;;;;;7.95;4.75;;;;;;;0.06;56.81;102760.31;1744382;81;20975;-88
2022/12/03 11:50:37;;;;;;;11.20;6.28;;;;;;;0.13;57.25;102756.13;1748154;80;20880;-90
2022/12/03 11:53:18;;;;;;;8.45;5.17;;;;;;;0.15;57.31;102770.80;1746855;80;21160;-87
2022/12/03 11:55:50;;;;;;;6.50;4.70;;;;;;;0.25;57.23;102749.91;1748917;80;20883;-87
2022/12/03 11:58:28;;;;;;;5.50;4.20;;;;;;;0.41;57.25;102747.16;1747224;80;21018;-89
2022/12/03 12:00:57;;;;;;;12.68;4.33;;;;;;;0.53;56.93;102763.27;1747113;80;20904;-89
2022/12/03 12:03:28;;;;;;;6.10;4.33;;;;;;;0.56;56.91;102764.20;1740682;81;21006;-88
2022/12/03 12:06:09;;;;;;;5.87;4.45;;;;;;;0.63;56.73;102760.00;1741789;81;22319;-87
2022/12/03 12:08:38;;;;;;;8.30;4.87;;;;;;;0.62;56.35;102763.41;1746945;81;20939;-90
2022/12/03 12:11:21;;;;;;;11.90;5.05;;;;;;;0.50;56.38;102751.18;1745382;81;20979;-87
2022/12/03 12:13:53;;;;;;;9.38;4.97;;;;;;;0.43;56.84;102770.43;1738621;81;20959;-86
2022/12/03 12:16:46;;;;;;;5.00;4.50;;;;;;;0.43;57.05;102770.43;1749004;80;20808;-88
2022/12/03 12:19:42;;;;;;;15.65;4.58;;;;;;;0.41;57.12;102769.97;1750064;81;21129;-88
2022/12/03 12:22:28;;;;;;;14.68;6.15;;;;;;;0.35;57.44;102775.02;1746140;80;20974;-88
2022/12/03 12:25:01;;;;;;;10.25;5.12;;;;;;;0.27;57.63;102775.72;1745433;80;20927;-89
2022/12/03 12:27:37;;;;;;;8.15;5.12;;;;;;;0.22;57.77;102774.35;1720790;81;21023;-88
2022/12/03 12:33:21;;;;;;;7.28;4.42;;;;;;;0.14;57.28;102795.30;1884858;75;22307;-88
2022/12/03 12:35:48;;;;;;;7.58;4.05;;;;;;;-0.04;57.20;102774.77;1861561;77;21381;-88
2022/12/03 12:38:19;;;;;;;10.43;4.60;;;;;;;-0.12;57.41;102780.61;1861007;77;21963;-88
2022/12/03 12:40:48;;;;;;;7.03;4.60;;;;;;;-0.17;57.38;102788.69;1861164;77;21491;-87
2022/12/03 12:43:26;;;;;;;10.82;4.90;;;;;;;-0.25;57.49;102777.78;1861604;76;20973;-87
2022/12/03 12:46:00;;;;;;;10.20;4.83;;;;;;;-0.31;57.72;102789.28;1861133;77;20958;-87
2022/12/03 12:48:30;;;;;;;7.33;4.95;;;;;;;-0.29;57.48;102789.30;1830370;77;20943;-88
2022/12/03 12:51:02;;;;;;;9.13;4.75;;;;;;;-0.36;57.72;102795.17;1861114;77;21218;-87
2022/12/03 12:53:31;;;;;;;6.65;4.60;;;;;;;-0.44;57.99;102790.73;1846264;76;21419;-86
2022/12/03 12:56:02;;;;;;;8.73;5.03;;;;;;;-0.49;58.33;102794.04;1861250;77;21452;-89
2022/12/03 12:58:31;;;;;;;6.30;4.42;;;;;;;-0.53;58.82;102807.73;1861270;76;20891;-88
2022/12/03 13:01:02;;;;;;;7.12;4.67;;;;;;;-0.52;58.89;102796.56;1861315;77;20954;-90
2022/12/03 13:03:34;;;;;;;11.20;5.87;;;;;;;-0.57;58.75;102808.06;1861117;76;21127;-88
2022/12/03 13:06:01;;;;;;;9.50;4.58;;;;;;;-0.65;59.06;102804.02;1861045;76;21368;-87
2022/12/03 13:08:32;;;;;;;10.38;4.75;;;;;;;-0.71;59.21;102814.61;1861212;76;20962;-88
2022/12/03 13:11:00;;;;;;;8.33;5.15;;;;;;;-0.80;59.38;102808.86;1862153;77;21051;-87
2022/12/03 13:13:40;;;;;;;12.55;5.00;;;;;;;-0.88;59.53;102811.67;1861763;76;21407;-87
2022/12/03 13:16:29;;;;;;;9.33;5.25;;;;;;;-1.02;59.65;102827.20;1861786;77;21167;-87
2022/12/03 13:18:57;;;;;;;8.98;5.37;;;;;;;-1.21;60.08;102821.62;1861862;77;20867;-84
2022/12/03 13:21:37;;;;;;;8.38;5.45;;;;;;;-1.25;60.49;102817.23;1862468;77;21327;-90
2022/12/03 13:24:31;;;;;;;12.55;4.70;;;;;;;-1.25;60.41;102818.52;1862638;77;20844;-88
2022/12/03 13:26:59;;;;;;;16.25;7.62;;;;;;;-1.25;60.43;102828.81;1780499;80;20999;-88
2022/12/03 13:29:26;;;;;;;10.48;4.90;;;;;;;-1.25;60.45;102830.97;1764278;80;21229;-88
2022/12/03 13:31:58;;;;;;;11.83;5.42;;;;;;;-1.23;60.45;102841.31;1788425;79;20907;-87
2022/12/03 13:34:27;;;;;;;15.85;4.83;;;;;;;-1.22;60.26;102834.45;1796714;79;20849;-86
2022/12/03 13:36:54;;;;;;;10.68;5.70;;;;;;;-1.30;60.39;102839.42;1739808;80;20961;-87
2022/12/03 13:39:26;;;;;;;9.35;4.58;;;;;;;-1.37;60.64;102829.39;1757782;80;21438;-87
2022/12/03 13:44:47;;;;;;;8.95;4.78;;;;;;;-1.49;60.61;102847.08;1768927;81;20907;-88
2022/12/03 13:47:17;;;;;;;10.95;4.80;;;;;;;-1.60;60.96;102837.81;1768404;81;21467;-88
2022/12/03 13:49:55;;;;;;;10.13;5.00;;;;;;;-1.68;60.76;102867.60;1768353;79;20892;-89
2022/12/03 13:52:24;;;;;;;5.85;4.15;;;;;;;-1.71;60.71;102860.68;1768166;79;20859;-88
2022/12/03 13:54:53;;;;;;;11.30;5.20;;;;;;;-1.74;60.93;102863.57;1768094;80;21149;-89
2022/12/03 13:57:22;;;;;;;9.03;4.67;;;;;;;-1.76;60.84;102858.80;1768246;81;20935;-88
2022/12/03 13:59:49;;;;;;;10.65;5.47;;;;;;;-1.79;61.03;102866.02;1768691;81;21444;-88
2022/12/03 14:02:15;;;;;;;10.82;4.15;;;;;;;-1.81;61.02;102879.67;1768736;81;20892;-87
2022/12/03 14:04:42;;;;;;;9.20;5.20;;;;;;;-1.84;61.00;102883.45;1769606;79;20851;-88
2022/12/03 14:07:08;;;;;;;7.47;4.53;;;;;;;-1.91;61.12;102880.70;1768497;81;21081;-87
2022/12/03 14:09:35;;;;;;;5.60;4.12;;;;;;;-1.96;61.32;102878.39;1768542;81;20840;-89
2022/12/03 14:14:46;;;;;;;12.68;4.70;;;;;;;-1.97;61.36;102886.95;1768484;81;20931;-88
2022/12/03 14:17:13;;;;;;;16.82;6.33;;;;;;;-2.01;61.41;102892.83;1768835;79;20906;-88
2022/12/03 14:19:39;;;;;;;9.78;4.50;;;;;;;-2.03;61.67;102889.77;1768515;79;21787;-89
2022/12/03 14:22:08;;;;;;;7.45;4.95;;;;;;;-2.04;61.52;102894.46;1768380;81;20915;-87
2022/12/03 14:24:35;;;;;;;9.70;5.45;;;;;;;-2.05;61.59;102902.98;1768579;81;20877;-88
2022/12/03 14:27:02;;;;;;;9.80;5.10;;;;;;;-2.07;61.59;102894.35;1769469;81;20970;-87
2022/12/03 14:29:28;;;;;;;6.95;5.70;;;;;;;-2.07;61.72;102908.48;1770354;81;20951;-89
2022/12/03 14:31:55;;;;;;;13.50;4.72;;;;;;;-2.11;61.66;102904.56;1775937;77;21137;-88
2022/12/03 14:34:23;;;;;;;12.82;5.20;;;;;;;-2.14;61.75;102910.88;1819965;78;20899;-86
2022/12/03 14:36:52;;;;;;;11.60;4.95;;;;;;;-2.18;61.80;102914.20;1819854;78;20892;-87
2022/12/03 14:39:18;;;;;;;13.60;4.45;;;;;;;-2.23;61.88;102910.61;1819828;78;20962;-87
2022/12/03 14:44:32;;;;;;;14.83;4.28;;;;;;;-2.27;61.92;102911.75;1719634;82;21710;-87
2022/12/03 14:46:59;;;;;;;9.33;4.12;;;;;;;-2.35;62.00;102917.54;1719650;83;21517;-88
2022/12/03 14:49:25;;;;;;;9.00;4.95;;;;;;;-2.39;62.17;102916.98;1720006;83;20900;-87
2022/12/03 14:51:52;;;;;;;9.53;4.85;;;;;;;-2.39;62.16;102919.55;1719428;83;20956;-89
2022/12/03 14:54:18;;;;;;;9.18;5.37;;;;;;;-2.39;62.30;102923.83;1719621;83;21460;-90
2022/12/03 14:56:44;;;;;;;14.07;5.90;;;;;;;-2.44;62.36;102917.27;1719610;83;21328;-90
2022/12/03 14:59:11;;;;;;;8.85;4.97;;;;;;;-2.50;62.39;102910.23;1719948;83;21003;-88
2022/12/03 15:01:37;;;;;;;8.65;4.22;;;;;;;-2.55;62.41;102925.92;1719974;83;20951;-89
2022/12/03 15:04:04;;;;;;;8.35;4.87;;;;;;;-2.58;62.47;102920.70;1719826;83;20908;-88
2022/12/03 15:06:30;;;;;;;7.80;4.78;;;;;;;-2.58;62.45;102932.64;1719596;83;20964;-88
2022/12/03 15:08:58;;;;;;;12.40;4.22;;;;;;;-2.60;62.27;102927.48;1719677;83;21133;-88
2022/12/03 15:11:25;;;;;;;9.70;4.42;;;;;;;-2.61;62.42;102922.28;1694438;83;20865;-88
2022/12/03 15:13:52;;;;;;;8.68;4.47;;;;;;;-2.58;62.07;102928.79;1719620;83;20948;-88
2022/12/03 15:16:19;;;;;;;12.93;4.75;;;;;;;-2.58;61.93;102934.83;1797933;79;20958;-88
2022/12/03 15:18:45;;;;;;;8.28;4.58;;;;;;;-2.60;61.82;102939.42;1820788;79;21329;-88
2022/12/03 15:21:12;;;;;;;10.48;3.98;;;;;;;-2.65;61.99;102935.42;1820056;79;21886;-89
2022/12/03 15:23:38;;;;;;;8.25;4.90;;;;;;;-2.71;62.06;102939.97;1820557;79;20954;-89
2022/12/03 15:26:05;;;;;;;7.78;4.53;;;;;;;-2.74;62.23;102939.85;1821035;79;21306;-89
2022/12/03 15:28:31;;;;;;;7.28;4.70;;;;;;;-2.76;62.16;102949.23;1822310;77;20935;-88
2022/12/03 15:30:59;;;;;;;9.15;4.55;;;;;;;-2.76;62.19;102944.48;1821811;79;20982;-89
2022/12/03 15:33:25;;;;;;;14.87;4.22;;;;;;;-2.76;62.27;102935.11;1809744;79;21077;-90
2022/12/03 15:35:52;;;;;;;6.97;4.50;;;;;;;-2.78;62.22;102946.13;1804389;79;21401;-91
2022/12/03 15:38:19;;;;;;;9.83;5.12;;;;;;;-2.78;62.35;102935.85;1804364;79;20907;-90
2022/12/03 15:40:46;;;;;;;7.22;4.75;;;;;;;-2.78;62.27;102952.55;1804347;78;20840;-88
2022/12/03 15:43:13;;;;;;;10.72;4.87;;;;;;;-2.79;62.41;102961.08;1804842;79;20875;-89
2022/12/03 15:45:40;;;;;;;8.30;6.33;;;;;;;-2.79;62.39;102958.52;1804392;78;21126;-89
2022/12/03 15:48:06;;;;;;;12.53;5.90;;;;;;;-2.80;62.51;102965.73;1804119;78;20930;-89
2022/12/03 15:50:33;;;;;;;11.48;6.80;;;;;;;-2.80;62.79;102964.07;1804251;78;20843;-89
2022/12/03 15:52:59;;;;;;;16.95;6.12;;;;;;;-2.80;62.71;102982.05;1804340;78;20958;-88
2022/12/03 15:55:26;;;;;;;10.08;5.62;;;;;;;-2.84;62.79;102970.34;1804281;78;20914;-87
2022/12/03 15:57:53;;;;;;;14.18;5.87;;;;;;;-2.87;63.04;102977.50;1804407;79;21401;-87
2022/12/03 16:00:20;;;;;;;11.53;6.72;;;;;;;-2.85;63.10;103005.39;1792628;78;20981;-90
2022/12/03 16:02:47;;;;;;;9.65;5.10;;;;;;;-2.87;62.81;102990.75;1804308;78;21092;-88
2022/12/03 16:05:13;;;;;;;8.33;5.40;;;;;;;-2.96;62.88;103019.16;1804336;79;20926;-89
2022/12/03 16:07:40;;;;;;;8.55;5.53;;;;;;;-3.03;63.06;103004.34;1804405;79;20946;-89
2022/12/03 16:10:08;;;;;;;14.30;7.35;;;;;;;-3.11;63.27;103003.23;1803975;79;21188;-89
2022/12/03 16:12:34;;;;;;;8.65;5.20;;;;;;;-3.17;63.59;103002.59;1804229;79;20840;-88